createdAt,value
2018-10-03T00:01:09.593Z,5.40
2018-10-03T00:03:38.973Z,4.40
2018-10-03T00:06:09.640Z,4.10
2018-10-03T00:08:38.912Z,4.87
2018-10-03T00:11:09.277Z,4.97
2018-10-03T00:13:40.095Z,5.80
2018-10-03T00:16:09.425Z,5.13
2018-10-03T00:18:40.153Z,3.90
2018-10-03T00:21:10.593Z,4.40
2018-10-03T00:23:39.961Z,3.27
2018-10-03T00:26:09.189Z,3.60
2018-10-03T00:28:38.938Z,4.77
2018-10-03T00:31:08.877Z,4.20
2018-10-03T00:33:39.298Z,3.90
2018-10-03T00:36:10.175Z,4.60
2018-10-03T00:38:40.473Z,3.37
2018-10-03T00:41:09.261Z,2.87
2018-10-03T00:43:38.710Z,3.03
2018-10-03T00:46:08.340Z,3.40
2018-10-03T00:48:36.697Z,2.80
2018-10-03T00:51:06.161Z,3.37
2018-10-03T00:53:34.929Z,2.80
2018-10-03T00:56:04.377Z,3.00
2018-10-03T00:58:33.704Z,2.60
2018-10-03T01:01:02.808Z,3.30
2018-10-03T01:03:31.210Z,3.63
2018-10-03T01:05:59.599Z,3.67
2018-10-03T01:08:27.905Z,3.60
2018-10-03T01:11:02.729Z,3.63
2018-10-03T01:13:32.065Z,3.03
2018-10-03T01:16:01.784Z,2.73
2018-10-03T01:18:30.124Z,3.57
2018-10-03T01:20:58.458Z,3.40
2018-10-03T01:23:26.805Z,3.60
2018-10-03T01:25:55.116Z,4.40
2018-10-03T01:28:23.494Z,3.43
2018-10-03T01:30:51.839Z,2.63
2018-10-03T01:33:20.189Z,3.73
2018-10-03T01:35:48.541Z,3.00
2018-10-03T01:38:16.903Z,3.70
2018-10-03T01:40:45.258Z,3.83
2018-10-03T01:43:13.588Z,3.33
2018-10-03T01:45:41.927Z,3.40
2018-10-03T01:48:10.267Z,3.27
2018-10-03T01:50:40.814Z,3.80
2018-10-03T01:53:09.162Z,3.40
2018-10-03T01:55:38.417Z,4.13
2018-10-03T01:58:06.753Z,3.30
2018-10-03T02:00:35.114Z,3.23
2018-10-03T02:03:03.472Z,2.67
2018-10-03T02:05:32.325Z,3.10
2018-10-03T02:08:00.654Z,2.67
2018-10-03T02:10:28.992Z,3.37
2018-10-03T02:12:57.313Z,3.63
2018-10-03T02:15:25.710Z,3.17
2018-10-03T02:17:54.101Z,2.90
2018-10-03T02:20:23.325Z,4.57
2018-10-03T02:22:52.669Z,2.90
2018-10-03T02:25:22.215Z,4.20
2018-10-03T02:27:51.549Z,2.90
2018-10-03T02:30:20.718Z,3.40
2018-10-03T02:32:49.926Z,2.90
2018-10-03T02:35:19.309Z,3.27
2018-10-03T02:37:48.562Z,2.80
2018-10-03T02:40:17.918Z,3.00
2018-10-03T02:42:47.166Z,3.30
2018-10-03T02:45:19.986Z,3.00
2018-10-03T02:47:50.469Z,3.43
2018-10-03T02:50:19.857Z,2.70
2018-10-03T02:52:48.537Z,3.60
2018-10-03T02:55:17.910Z,3.40
2018-10-03T02:57:47.177Z,2.70
2018-10-03T03:00:16.377Z,4.73
2018-10-03T03:02:45.621Z,3.20
2018-10-03T03:05:14.967Z,3.30
2018-10-03T03:07:43.352Z,3.10
2018-10-03T03:10:11.708Z,5.50
2018-10-03T03:12:40.055Z,4.00
2018-10-03T03:15:09.419Z,3.03
2018-10-03T03:17:38.913Z,5.30
2018-10-03T03:20:07.821Z,2.87
2018-10-03T03:22:38.258Z,3.37
2018-10-03T03:25:07.352Z,4.23
2018-10-03T03:27:36.257Z,2.80
2018-10-03T03:30:05.091Z,2.97
2018-10-03T03:32:34.552Z,3.70
2018-10-03T03:35:02.898Z,2.57
2018-10-03T03:37:31.310Z,3.17
2018-10-03T03:39:59.715Z,3.23
2018-10-03T03:42:28.082Z,2.70
2018-10-03T03:44:56.435Z,4.30
2018-10-03T03:47:24.760Z,4.13
2018-10-03T03:49:53.108Z,3.13
2018-10-03T03:52:21.457Z,3.30
2018-10-03T03:54:49.789Z,2.57
2018-10-03T03:57:18.125Z,2.60
2018-10-03T03:59:46.477Z,3.43
2018-10-03T04:02:14.837Z,3.80
2018-10-03T04:04:43.169Z,3.57
2018-10-03T04:07:11.498Z,3.57
2018-10-03T04:09:39.860Z,2.80
2018-10-03T04:12:09.290Z,2.90
2018-10-03T04:14:38.410Z,4.17
2018-10-03T04:17:07.193Z,3.53
2018-10-03T04:19:36.290Z,2.57
2018-10-03T04:22:04.630Z,3.80
2018-10-03T04:24:34.461Z,4.30
2018-10-03T04:27:03.781Z,3.30
2018-10-03T04:29:34.001Z,3.80
2018-10-03T04:32:02.945Z,2.80
2018-10-03T04:34:31.949Z,2.90
2018-10-03T04:37:00.352Z,3.30
2018-10-03T04:39:28.684Z,4.27
2018-10-03T04:41:57.019Z,3.67
2018-10-03T04:44:25.375Z,3.00
2018-10-03T04:46:53.718Z,2.97
2018-10-03T04:49:22.065Z,3.73
2018-10-03T04:51:50.417Z,2.83
2018-10-03T04:54:18.761Z,3.13
2018-10-03T04:56:47.907Z,3.33
2018-10-03T04:59:16.269Z,2.90
2018-10-03T05:01:44.673Z,4.50
2018-10-03T05:04:13.058Z,3.27
2018-10-03T05:06:41.413Z,3.43
2018-10-03T05:09:10.200Z,3.60
2018-10-03T05:11:39.429Z,3.43
2018-10-03T05:14:08.770Z,3.60
2018-10-03T05:16:39.261Z,3.90
2018-10-03T05:19:08.621Z,3.93
2018-10-03T05:21:37.696Z,4.27
2018-10-03T05:24:07.067Z,2.67
2018-10-03T05:26:37.003Z,3.40
2018-10-03T05:29:06.997Z,3.27
2018-10-03T05:31:36.637Z,2.77
2018-10-03T05:34:04.973Z,3.50
2018-10-03T05:36:33.949Z,2.90
2018-10-03T05:39:03.101Z,3.40
2018-10-03T05:41:31.872Z,3.50
2018-10-03T05:44:00.181Z,3.20
2018-10-03T05:46:28.512Z,3.17
2018-10-03T05:48:56.931Z,3.83
2018-10-03T05:51:25.443Z,2.27
2018-10-03T05:53:53.787Z,3.63
2018-10-03T05:56:22.141Z,2.77
2018-10-03T05:58:50.489Z,2.73
2018-10-03T06:01:18.854Z,3.67
2018-10-03T06:03:47.193Z,3.43
2018-10-03T06:06:15.535Z,3.83
2018-10-03T06:08:44.796Z,2.97
2018-10-03T06:11:14.185Z,2.77
2018-10-03T06:13:42.512Z,2.70
2018-10-03T06:16:11.225Z,2.60
2018-10-03T06:18:39.675Z,2.80
2018-10-03T06:21:08.789Z,3.07
2018-10-03T06:23:37.817Z,2.60
2018-10-03T06:26:06.986Z,3.10
2018-10-03T06:28:35.326Z,3.60
2018-10-03T06:31:04.693Z,3.70
2018-10-03T06:33:35.010Z,3.60
2018-10-03T06:36:05.201Z,2.73
2018-10-03T06:38:35.841Z,2.97
2018-10-03T06:41:05.053Z,3.73
2018-10-03T06:43:34.250Z,4.10
2018-10-03T06:46:04.682Z,4.23
2018-10-03T06:48:34.525Z,3.17
2018-10-03T06:51:05.161Z,3.10
2018-10-03T06:53:35.941Z,3.20
2018-10-03T06:56:04.470Z,3.20
2018-10-03T06:58:33.770Z,3.10
2018-10-03T07:01:03.781Z,2.50
2018-10-03T07:03:33.917Z,3.23
2018-10-03T07:06:04.325Z,3.57
2018-10-03T07:08:33.665Z,2.43
2018-10-03T07:11:03.804Z,3.60
2018-10-03T07:13:33.577Z,3.00
2018-10-03T07:16:02.709Z,2.30
2018-10-03T07:18:32.094Z,2.60
2018-10-03T07:21:02.382Z,3.00
2018-10-03T07:23:32.119Z,3.90
2018-10-03T07:26:02.395Z,2.70
2018-10-03T07:28:30.788Z,2.70
2018-10-03T07:30:59.113Z,3.17
2018-10-03T07:33:28.334Z,3.80
2018-10-03T07:35:57.701Z,3.93
2018-10-03T07:38:26.933Z,3.50
2018-10-03T07:40:56.878Z,2.20
2018-10-03T07:43:26.785Z,2.13
2018-10-03T07:45:56.265Z,2.93
2018-10-03T07:48:24.598Z,3.67
2018-10-03T07:50:53.833Z,3.00
2018-10-03T07:53:23.240Z,2.57
2018-10-03T07:55:52.562Z,2.33
2018-10-03T07:58:21.785Z,2.40
2018-10-03T08:00:51.177Z,4.37
2018-10-03T08:03:20.393Z,3.90
2018-10-03T08:05:48.726Z,3.27
2018-10-03T08:08:17.985Z,3.03
2018-10-03T08:10:47.310Z,2.30
2018-10-03T08:13:16.669Z,2.40
2018-10-03T08:15:45.903Z,1.87
2018-10-03T08:18:15.248Z,2.53
2018-10-03T08:20:44.510Z,3.50
2018-10-03T08:23:13.768Z,2.90
2018-10-03T08:25:42.977Z,2.70
2018-10-03T08:28:12.299Z,2.63
2018-10-03T08:30:41.642Z,3.27
2018-10-03T08:33:10.025Z,3.97
2018-10-03T08:35:39.265Z,3.03
2018-10-03T08:38:08.740Z,2.30
2018-10-03T08:40:38.035Z,2.53
2018-10-03T08:43:07.964Z,2.80
2018-10-03T08:45:38.485Z,2.93
2018-10-03T08:48:06.821Z,2.50
2018-10-03T08:50:35.207Z,2.70
2018-10-03T08:53:05.894Z,2.77
2018-10-03T08:55:34.783Z,2.03
2018-10-03T08:58:03.165Z,2.87
2018-10-03T09:00:32.020Z,2.43
2018-10-03T09:03:00.352Z,2.20
2018-10-03T09:05:28.698Z,2.83
2018-10-03T09:08:11.242Z,2.90
2018-10-03T09:10:41.026Z,2.83
2018-10-03T09:13:09.409Z,2.60
2018-10-03T09:15:38.925Z,3.27
2018-10-03T09:18:09.258Z,2.40
2018-10-03T09:20:40.425Z,2.27
2018-10-03T09:23:09.748Z,1.87
2018-10-03T09:25:38.693Z,2.60
2018-10-03T09:28:08.101Z,2.27
2018-10-03T09:30:38.369Z,2.33
2018-10-03T09:33:08.693Z,1.70
2018-10-03T09:35:39.046Z,2.20
2018-10-03T09:38:09.188Z,2.13
2018-10-03T09:40:38.914Z,2.40
2018-10-03T09:43:09.069Z,1.80
2018-10-03T09:45:39.325Z,2.20
2018-10-03T09:48:09.954Z,2.03
2018-10-03T09:50:39.165Z,1.50
2018-10-03T09:53:08.950Z,1.90
2018-10-03T09:55:39.243Z,1.73
2018-10-03T09:58:09.989Z,1.97
2018-10-03T10:00:44.770Z,1.73
2018-10-03T10:03:13.106Z,2.87
2018-10-03T10:05:42.362Z,2.17
2018-10-03T10:08:18.424Z,1.80
2018-10-03T10:10:47.781Z,2.70
2018-10-03T10:13:16.118Z,2.20
2018-10-03T10:15:45.355Z,1.50
2018-10-03T10:18:14.542Z,2.00
2018-10-03T10:20:43.800Z,1.23
2018-10-03T10:23:13.049Z,2.10
2018-10-03T10:25:42.273Z,1.87
2018-10-03T10:28:11.005Z,2.27
2018-10-03T10:30:40.373Z,1.97
2018-10-03T10:33:10.801Z,1.70
2018-10-03T10:35:40.095Z,3.20
2018-10-03T10:38:09.303Z,2.33
2018-10-03T10:40:38.892Z,1.80
2018-10-03T10:43:09.009Z,1.90
2018-10-03T10:45:39.669Z,2.90
2018-10-03T10:48:08.940Z,1.90
2018-10-03T10:50:39.397Z,2.13
2018-10-03T10:53:10.159Z,1.93
2018-10-03T10:55:39.382Z,1.53
2018-10-03T10:58:09.313Z,1.70
2018-10-03T11:00:39.936Z,1.60
2018-10-03T11:03:09.196Z,2.47
2018-10-03T11:05:38.490Z,1.97
2018-10-03T11:08:08.393Z,1.90
2018-10-03T11:10:38.749Z,3.20
2018-10-03T11:13:08.769Z,2.53
2018-10-03T11:15:39.651Z,1.73
2018-10-03T11:18:08.837Z,2.47
2018-10-03T11:20:38.710Z,1.70
2018-10-03T11:23:07.889Z,1.60
2018-10-03T11:25:36.933Z,1.97
2018-10-03T11:28:07.257Z,1.80
2018-10-03T11:30:36.237Z,2.50
2018-10-03T11:33:05.372Z,2.97
2018-10-03T11:35:33.861Z,2.57
2018-10-03T11:38:02.274Z,2.20
2018-10-03T11:40:30.592Z,3.03
2018-10-03T11:42:58.925Z,3.30
2018-10-03T11:45:27.247Z,2.47
2018-10-03T11:47:55.598Z,3.73
2018-10-03T11:50:25.364Z,2.27
2018-10-03T11:52:53.721Z,1.50
2018-10-03T11:55:22.047Z,1.43
2018-10-03T11:57:50.397Z,1.63
2018-10-03T12:00:18.717Z,1.90
2018-10-03T12:02:47.145Z,2.43
2018-10-03T12:05:15.483Z,2.17
2018-10-03T12:07:43.823Z,1.80
2018-10-03T12:10:12.177Z,2.23
2018-10-03T12:12:40.514Z,3.10
2018-10-03T12:15:08.846Z,2.63
2018-10-03T12:17:37.761Z,2.53
2018-10-03T12:20:07.165Z,2.50
2018-10-03T12:22:36.107Z,2.13
2018-10-03T12:25:07.169Z,2.53
2018-10-03T12:27:37.253Z,3.17
2018-10-03T12:30:07.105Z,1.87
2018-10-03T12:32:37.173Z,1.60
2018-10-03T12:35:08.010Z,1.97
2018-10-03T12:37:38.401Z,2.20
2018-10-03T12:40:08.608Z,1.77
2018-10-03T12:42:38.977Z,1.90
2018-10-03T12:45:09.417Z,2.40
2018-10-03T12:47:40.059Z,1.50
2018-10-03T12:50:09.428Z,1.67
2018-10-03T12:52:40.214Z,1.70
2018-10-03T12:55:10.847Z,2.23
2018-10-03T12:57:39.169Z,1.40
2018-10-03T13:00:08.951Z,1.50
2018-10-03T13:02:39.302Z,1.97
2018-10-03T13:05:09.976Z,1.63
2018-10-03T13:07:39.348Z,2.03
2018-10-03T13:10:08.737Z,1.60
2018-10-03T13:12:38.561Z,1.30
2018-10-03T13:15:08.041Z,1.57
2018-10-03T13:17:37.757Z,1.63
2018-10-03T13:20:08.174Z,1.50
2018-10-03T13:22:38.090Z,1.30
2018-10-03T13:25:08.093Z,1.47
2018-10-03T13:27:38.636Z,1.60
2018-10-03T13:30:08.356Z,1.17
2018-10-03T13:32:37.412Z,1.07
2018-10-03T13:35:06.821Z,1.47
2018-10-03T13:37:37.037Z,1.80
2018-10-03T13:40:07.526Z,1.50
2018-10-03T13:42:37.248Z,1.20
2018-10-03T13:45:07.366Z,1.37
2018-10-03T13:47:35.703Z,1.77
2018-10-03T13:50:04.969Z,1.57
2018-10-03T13:52:33.733Z,1.17
2018-10-03T13:55:03.218Z,1.53
2018-10-03T13:57:32.240Z,1.27
2018-10-03T14:00:00.571Z,1.63
2018-10-03T14:02:28.904Z,1.13
2018-10-03T14:04:57.248Z,1.33
2018-10-03T14:07:25.595Z,1.37
2018-10-03T14:09:53.936Z,1.30
2018-10-03T14:12:22.266Z,1.30
2018-10-03T14:14:50.618Z,1.10
2018-10-03T14:17:18.974Z,1.20
2018-10-03T14:19:47.313Z,1.80
2018-10-03T14:22:15.645Z,1.73
2018-10-03T14:24:43.967Z,1.57
2018-10-03T14:27:12.312Z,1.37
2018-10-03T14:29:41.530Z,1.50
2018-10-03T14:32:10.120Z,1.57
2018-10-03T14:34:39.149Z,1.57
2018-10-03T14:37:08.445Z,1.77
2018-10-03T14:39:37.214Z,1.40
2018-10-03T14:42:07.313Z,1.43
2018-10-03T14:44:36.155Z,1.40
2018-10-03T14:47:05.065Z,1.20
2018-10-03T14:49:34.109Z,0.97
2018-10-03T14:52:03.718Z,1.10
2018-10-03T14:54:32.654Z,1.80
2018-10-03T14:57:01.005Z,1.47
2018-10-03T14:59:29.362Z,1.13
2018-10-03T15:01:57.736Z,1.17
2018-10-03T15:04:26.109Z,1.57
2018-10-03T15:06:54.458Z,1.40
2018-10-03T15:09:22.841Z,2.13
2018-10-03T15:11:51.166Z,1.20
2018-10-03T15:14:19.498Z,1.50
2018-10-03T15:16:47.838Z,1.30
2018-10-03T15:19:16.186Z,2.10
2018-10-03T15:21:44.513Z,1.57
2018-10-03T15:24:12.875Z,1.40
2018-10-03T15:26:41.202Z,1.40
2018-10-03T15:29:09.550Z,2.37
2018-10-03T15:31:38.745Z,2.63
2018-10-03T15:34:08.186Z,1.70
2018-10-03T15:36:38.145Z,1.53
2018-10-03T15:39:08.533Z,1.80
2018-10-03T15:41:36.877Z,1.20
2018-10-03T15:44:05.288Z,1.30
2018-10-03T15:46:34.665Z,1.90
2018-10-03T15:49:03.370Z,2.17
2018-10-03T15:51:32.300Z,5.10
2018-10-03T15:54:00.637Z,2.73
2018-10-03T15:56:28.973Z,7.37
2018-10-03T15:58:57.348Z,7.37
2018-10-03T16:01:25.681Z,7.43
2018-10-03T16:03:54.021Z,4.70
2018-10-03T16:06:22.416Z,4.77
2018-10-03T16:08:50.740Z,5.67
2018-10-03T16:11:19.233Z,4.60
2018-10-03T16:13:48.454Z,11.20
2018-10-03T16:16:16.793Z,5.43
2018-10-03T16:18:46.018Z,2.73
2018-10-03T16:21:15.264Z,3.00
2018-10-03T16:23:44.470Z,4.60
2018-10-03T16:26:12.816Z,3.53
2018-10-03T16:28:41.165Z,2.00
2018-10-03T16:31:09.509Z,2.47
2018-10-03T16:33:39.278Z,1.90
2018-10-03T16:36:10.046Z,2.17
2018-10-03T16:38:39.485Z,2.20
2018-10-03T16:41:10.133Z,2.30
2018-10-03T16:43:39.505Z,2.20
2018-10-03T16:46:09.137Z,2.80
2018-10-03T16:48:40.002Z,2.03
2018-10-03T16:51:09.196Z,1.83
2018-10-03T16:53:38.982Z,2.33
2018-10-03T16:56:09.354Z,3.20
2018-10-03T16:58:40.010Z,1.80
2018-10-03T17:01:10.053Z,1.67
2018-10-03T17:03:40.047Z,1.80
2018-10-03T17:06:08.933Z,1.60
2018-10-03T17:08:39.005Z,1.97
2018-10-03T17:11:08.293Z,2.17
2018-10-03T17:13:48.138Z,1.80
2018-10-03T17:16:16.518Z,1.80
2018-10-03T17:18:44.853Z,2.80
2018-10-03T17:21:13.222Z,3.20
2018-10-03T17:23:42.601Z,2.17
2018-10-03T17:26:10.929Z,2.40
2018-10-03T17:28:40.145Z,1.97
2018-10-03T17:31:09.850Z,2.33
2018-10-03T17:33:39.601Z,1.90
2018-10-03T17:36:08.953Z,2.67
2018-10-03T17:38:39.581Z,2.50
2018-10-03T17:41:08.903Z,2.70
2018-10-03T17:43:39.037Z,2.10
2018-10-03T17:46:08.962Z,3.00
2018-10-03T17:48:39.693Z,2.80
2018-10-03T17:51:09.029Z,1.90
2018-10-03T17:53:38.357Z,2.27
2018-10-03T17:56:08.762Z,4.00
2018-10-03T17:58:38.846Z,2.37
2018-10-03T18:01:09.035Z,1.80
2018-10-03T18:03:38.977Z,2.07
2018-10-03T18:06:08.726Z,2.27
2018-10-03T18:08:38.816Z,1.50
2018-10-03T18:11:09.040Z,1.83
2018-10-03T18:13:39.759Z,1.63
2018-10-03T18:16:08.970Z,1.70
2018-10-03T18:18:38.070Z,1.70
2018-10-03T18:21:08.545Z,1.33
2018-10-03T18:23:38.325Z,1.10
2018-10-03T18:26:07.314Z,1.30
2018-10-03T18:28:37.306Z,2.70
2018-10-03T18:31:07.208Z,1.60
2018-10-03T18:33:35.837Z,1.80
2018-10-03T18:36:05.223Z,1.20
2018-10-03T18:38:34.263Z,1.30
2018-10-03T18:41:03.921Z,1.60
2018-10-03T18:43:33.257Z,1.80
2018-10-03T18:46:01.647Z,1.50
2018-10-03T18:48:30.999Z,1.80
2018-10-03T18:50:59.338Z,1.80
2018-10-03T18:53:27.686Z,1.60
2018-10-03T18:55:56.014Z,1.23
2018-10-03T18:58:24.373Z,1.27
2018-10-03T19:00:52.704Z,1.40
2018-10-03T19:03:21.077Z,2.03
2018-10-03T19:05:49.434Z,1.83
2018-10-03T19:08:17.760Z,1.47
2018-10-03T19:10:46.104Z,2.10
2018-10-03T19:13:14.506Z,1.40
2018-10-03T19:15:43.759Z,1.50
2018-10-03T19:18:13.134Z,1.80
2018-10-03T19:20:41.473Z,1.80
2018-10-03T19:23:09.821Z,1.83
2018-10-03T19:25:38.833Z,1.60
2018-10-03T19:28:07.876Z,1.97
2018-10-03T19:30:37.392Z,2.23
2018-10-03T19:33:07.387Z,2.40
2018-10-03T19:35:36.931Z,2.00
2018-10-03T19:38:07.245Z,2.93
2018-10-03T19:40:37.164Z,1.70
2018-10-03T19:43:07.762Z,1.93
2018-10-03T19:45:38.160Z,1.70
2018-10-03T19:48:08.791Z,2.03
2018-10-03T19:50:39.034Z,1.70
2018-10-03T19:53:09.384Z,2.63
2018-10-03T19:55:38.752Z,2.53
2018-10-03T19:58:08.950Z,2.90
2018-10-03T20:00:38.860Z,1.90
2018-10-03T20:03:08.821Z,1.73
2018-10-03T20:05:39.149Z,1.77
2018-10-03T20:08:08.913Z,1.73
2018-10-03T20:10:39.280Z,1.57
2018-10-03T20:13:08.909Z,3.03
2018-10-03T20:15:39.585Z,1.80
2018-10-03T20:18:08.896Z,1.90
2018-10-03T20:20:39.316Z,2.03
2018-10-03T20:23:08.689Z,2.07
2018-10-03T20:25:38.045Z,1.80
2018-10-03T20:28:07.117Z,1.87
2018-10-03T20:30:37.191Z,3.30
2018-10-03T20:33:06.972Z,2.80
2018-10-03T20:35:36.360Z,2.00
2018-10-03T20:38:06.974Z,1.80
2018-10-03T20:40:35.313Z,1.77
2018-10-03T20:43:04.377Z,2.10
2018-10-03T20:45:33.421Z,2.27
2018-10-03T20:48:02.802Z,2.37
2018-10-03T20:50:31.186Z,2.37
2018-10-03T20:52:59.525Z,3.00
2018-10-03T20:55:28.818Z,2.37
2018-10-03T20:57:57.174Z,2.40
2018-10-03T21:00:25.602Z,2.00
2018-10-03T21:02:53.885Z,1.80
2018-10-03T21:05:22.270Z,1.73
2018-10-03T21:07:50.613Z,2.00
2018-10-03T21:10:18.960Z,1.57
2018-10-03T21:12:47.293Z,2.10
2018-10-03T21:15:15.657Z,1.57
2018-10-03T21:17:43.998Z,1.70
2018-10-03T21:20:12.337Z,1.70
2018-10-03T21:22:40.676Z,1.40
2018-10-03T21:25:09.005Z,2.23
2018-10-03T21:27:38.369Z,1.90
2018-10-03T21:30:07.789Z,1.50
2018-10-03T21:32:36.896Z,1.97
2018-10-03T21:35:05.211Z,1.63
2018-10-03T21:37:33.583Z,2.40
2018-10-03T21:40:02.965Z,1.87
2018-10-03T21:42:31.319Z,1.73
2018-10-03T21:44:59.742Z,2.33
2018-10-03T21:47:28.113Z,1.60
2018-10-03T21:49:56.556Z,1.70
2018-10-03T21:52:24.928Z,1.50
2018-10-03T21:54:53.257Z,1.43
2018-10-03T21:57:21.645Z,1.93
2018-10-03T21:59:50.766Z,1.67
2018-10-03T22:02:19.102Z,1.40
2018-10-03T22:04:48.350Z,1.87
2018-10-03T22:07:17.687Z,1.53
2018-10-03T22:09:46.026Z,1.80
2018-10-03T22:12:15.381Z,1.60
2018-10-03T22:14:43.744Z,2.30
2018-10-03T22:17:17.357Z,2.60
2018-10-03T22:19:45.690Z,1.50
2018-10-03T22:22:15.261Z,1.70
2018-10-03T22:24:43.637Z,1.67
2018-10-03T22:27:12.995Z,2.50
2018-10-03T22:29:41.348Z,1.47
2018-10-03T22:32:10.099Z,1.90
2018-10-03T22:34:39.805Z,1.57
2018-10-03T22:37:09.437Z,1.80
2018-10-03T22:39:38.457Z,2.37
2018-10-03T22:42:08.665Z,1.60
2018-10-03T22:44:38.090Z,1.27
2018-10-03T22:47:07.221Z,2.97
2018-10-03T22:49:36.252Z,1.80
2018-10-03T22:52:07.348Z,1.53
2018-10-03T22:54:37.300Z,2.00
2018-10-03T22:57:08.101Z,1.77
2018-10-03T22:59:38.441Z,1.80
2018-10-03T23:02:08.093Z,1.93
2018-10-03T23:04:38.697Z,3.10
2018-10-03T23:07:09.042Z,2.10
2018-10-03T23:09:38.717Z,1.80
2018-10-03T23:12:09.542Z,1.87
2018-10-03T23:14:39.698Z,1.40
2018-10-03T23:17:08.933Z,2.27
2018-10-03T23:19:38.441Z,2.40
2018-10-03T23:22:08.020Z,1.63
2018-10-03T23:24:38.330Z,1.60
2018-10-03T23:27:08.644Z,1.83
2018-10-03T23:29:38.072Z,1.30
2018-10-03T23:32:07.478Z,3.00
2018-10-03T23:34:35.852Z,1.83
2018-10-03T23:37:05.231Z,2.30
2018-10-03T23:39:35.137Z,1.90
2018-10-03T23:42:04.443Z,1.80
2018-10-03T23:44:35.172Z,1.73
2018-10-03T23:47:06.405Z,1.77
2018-10-03T23:49:36.401Z,2.60
2018-10-03T23:52:06.833Z,1.80
2018-10-03T23:54:35.286Z,1.83
2018-10-03T23:57:03.670Z,1.43
2018-10-03T23:59:33.876Z,1.50
